LRTR/TSR METAR and TAF weather

Enter ICAO airport designator
Station Type Date Time Source
LRTR METAR 2020/11/25 23:00 UTC NOAA

LRTR 252300Z 02004KT 0200 R11/0650N R29/0900D FZFG VV002 M00/M00 Q1027


Station Type Date Time Source
LRTR Decoded METAR 2020/11/25 23:00 UTC NOAA

Timisoara, Romania (LRTR) 45-46N 021-15E 88M
Nov 25, 2020 - 06:00 PM EST / 2020.11.25 2300 UTC
Wind: from the NNE (020 degrees) at 5 MPH (4 KT):0
Visibility: less than 1 mile:0
Sky conditions: obscured
Weather: freezing fog
Temperature: 32 F (0 C)
Windchill: 26 F (-3 C):1
Dew Point: 32 F (0 C)
Relative Humidity: 100%
Pressure (altimeter): 30.33 in. Hg (1027 hPa)
ob: LRTR 252300Z 02004KT 0200 R11/0650N R29/0900D FZFG VV002 M00/M00 Q1027
cycle: 23

Station Type Date Time Source
LRTR TAF 2020/11/25 18:41 UTC NOAA

TAF
AMD LRTR 251834Z 2518/2618 02008KT 0300 FG OVC002
BECMG 2520/2522 0150 FZFG VV001
BECMG 2607/2609 1500 BR BKN005
BECMG 2610/2612 7000 NSW BKN015
BECMG 2615/2617 3000 BR BKN010

Example: see airport list